Time;durP1;ratioP1;P1;durP2;ratioP2;P2;SDS_P1;SDS_P2;PMS_P1;PMS_P2;Temp;Humidity;BMP_temperature;BMP_pressure;BME280_temperature;BME280_humidity;BME280_pressure;Samples;Min_cycle;Max_cycle;Signal;HPM_P1;HPM_P2
2024/01/13 00:09:36;;;;;;;3.43;2.10;;;;;;;;;;20725097;28;20223;-75
2024/01/13 00:19:38;;;;;;;2.73;1.70;;;;;;;;;;20731033;28;20207;-75
2024/01/13 00:29:39;;;;;;;2.40;1.53;;;;;;;;;;20734185;28;20250;-74
2024/01/13 00:39:42;;;;;;;1.93;1.73;;;;;;;;;;20711186;28;20235;-73
2024/01/13 00:49:43;;;;;;;3.27;2.07;;;;;;;;;;20711465;28;20224;-74
2024/01/13 00:59:45;;;;;;;3.80;2.07;;;;;;;;;;20712931;28;20231;-74
2024/01/13 01:09:47;;;;;;;2.33;1.73;;;;;;;;;;20737615;28;20235;-73
2024/01/13 01:19:49;;;;;;;2.60;2.20;;;;;;;;;;20743521;28;20219;-74
2024/01/13 01:29:51;;;;;;;1.23;1.13;;;;;;;;;;20713974;28;20247;-74
2024/01/13 01:39:53;;;;;;;1.87;1.43;;;;;;;;;;20694483;28;20278;-74
2024/01/13 01:49:55;;;;;;;2.07;1.70;;;;;;;;;;20702732;28;20265;-74
2024/01/13 01:59:57;;;;;;;1.70;1.50;;;;;;;;;;20726932;28;20235;-74
2024/01/13 02:09:59;;;;;;;3.30;2.10;;;;;;;;;;20735302;28;20254;-74
2024/01/13 02:20:04;;;;;;;2.53;2.00;;;;;;;;;;20727940;28;20219;-74
2024/01/13 02:30:06;;;;;;;3.03;2.00;;;;;;;;;;20720019;28;20215;-74
2024/01/13 02:40:09;;;;;;;2.77;1.87;;;;;;;;;;20718510;28;20755;-74
2024/01/13 02:50:11;;;;;;;2.33;1.63;;;-1.20;99.90;;;;;;20713680;28;20223;-74
2024/01/13 03:00:13;;;;;;;2.33;1.70;;;;;;;;;;20713478;28;20215;-74
2024/01/13 03:10:15;;;;;;;1.77;1.57;;;;;;;;;;20719492;28;20219;-74
2024/01/13 03:20:17;;;;;;;1.90;1.50;;;;;;;;;;20736396;28;20242;-75
2024/01/13 03:30:19;;;;;;;3.17;2.33;;;;;;;;;;20724017;28;20650;-74
2024/01/13 03:40:21;;;;;;;1.97;1.63;;;;;;;;;;20677005;28;20266;-75
2024/01/13 03:50:22;;;;;;;4.10;1.67;;;;;;;;;;20737681;22;20230;-85
2024/01/13 04:00:26;;;;;;;1.73;1.37;;;;;;;;;;20783710;28;20227;-85
2024/01/13 04:10:27;;;;;;;2.37;1.80;;;;;;;;;;20746259;28;20219;-84
2024/01/13 04:20:29;;;;;;;2.23;1.77;;;;;;;;;;20739454;28;20261;-85
2024/01/13 04:30:31;;;;;;;2.10;1.50;;;;;;;;;;20746327;28;20218;-84
2024/01/13 04:40:36;;;;;;;2.10;1.83;;;;;;;;;;20750781;28;20210;-85
2024/01/13 04:50:38;;;;;;;3.07;2.00;;;;;;;;;;20738041;28;20226;-86
2024/01/13 05:00:40;;;;;;;3.10;2.03;;;;;;;;;;20745529;28;20207;-84
2024/01/13 05:10:41;;;;;;;2.93;1.90;;;;;;;;;;20767673;28;20230;-85
2024/01/13 05:20:44;;;;;;;4.23;2.30;;;;;;;;;;20769473;28;20215;-85
2024/01/13 05:30:46;;;;;;;5.57;1.87;;;;;;;;;;20737119;28;20231;-84
2024/01/13 05:40:48;;;;;;;3.47;2.73;;;;;;;;;;20767042;28;20225;-84
2024/01/13 05:50:50;;;;;;;3.90;2.67;;;;;;;;;;20753016;28;20223;-83
2024/01/13 06:00:51;;;;;;;4.63;3.07;;;;;;;;;;20723288;28;20285;-85
2024/01/13 06:10:53;;;;;;;3.17;2.17;;;;;;;;;;20774477;28;20227;-85
2024/01/13 06:20:55;;;;;;;3.63;2.57;;;;;;;;;;20750341;28;20228;-85
2024/01/13 06:30:57;;;;;;;4.83;3.37;;;;;;;;;;20780833;28;20771;-86
2024/01/13 06:40:58;;;;;;;5.13;3.47;;;;;;;;;;20773793;28;20223;-86
2024/01/13 06:51:04;;;;;;;5.40;3.47;;;;;;;;;;20759248;28;20224;-84
2024/01/13 07:11:19;;;;;;;3.03;2.67;;;;;;;;;;21316058;27;20567;-65
2024/01/13 07:21:21;;;;;;;5.63;4.77;;;;;;;;;;21235117;27;20587;-65
2024/01/13 07:31:23;;;;;;;4.07;2.47;;;;;;;;;;21232390;27;20202;-65
2024/01/13 07:41:25;;;;;;;5.60;3.80;;;;;;;;;;21202096;27;20232;-65
2024/01/13 07:51:27;;;;;;;3.27;2.47;;;;;;;;;;21216428;27;20240;-65
2024/01/13 08:01:29;;;;;;;5.73;3.70;;;;;;;;;;21178858;27;20215;-65
2024/01/13 08:11:31;;;;;;;4.83;3.43;;;;;;;;;;21180524;27;20211;-65
2024/01/13 08:21:33;;;;;;;5.50;4.13;;;;;;;;;;21152126;27;20265;-65
2024/01/13 08:31:35;;;;;;;3.80;3.33;;;-1.30;99.90;;;;;;21118454;28;20204;-65
2024/01/13 08:41:37;;;;;;;5.40;3.60;;;-1.10;99.90;;;;;;21154190;27;20613;-65
2024/01/13 08:51:39;;;;;;;3.77;2.97;;;;;;;;;;21131766;27;20269;-65
2024/01/13 09:01:41;;;;;;;7.60;4.37;;;;;;;;;;21164747;27;20275;-66
2024/01/13 09:11:44;;;;;;;6.47;3.33;;;;;;;;;;21146518;27;20207;-65
2024/01/13 09:21:47;;;;;;;3.67;2.37;;;;;;;;;;21133943;27;20232;-65
2024/01/13 09:31:49;;;;;;;4.03;3.03;;;;;;;;;;21121353;27;20352;-65
2024/01/13 09:41:53;;;;;;;5.20;3.63;;;;;;;;;;21128813;27;20211;-66
2024/01/13 09:51:55;;;;;;;4.77;2.57;;;;;;;;;;20906884;22;20227;-72
2024/01/13 10:01:56;;;;;;;5.87;3.70;;;;;;;;;;20700678;28;20212;-74
2024/01/13 10:11:58;;;;;;;3.67;2.93;;;;;;;;;;20719580;28;20219;-74
2024/01/13 10:22:00;;;;;;;3.30;2.00;;;;;;;;;;20694561;28;20243;-72
2024/01/13 10:32:02;;;;;;;4.63;2.33;;;;;;;;;;20721069;28;20223;-75
2024/01/13 10:42:06;;;;;;;3.23;1.63;;;;;;;;;;20696477;28;20678;-74
2024/01/13 10:52:12;;;;;;;3.07;2.27;;;-0.60;99.90;;;;;;20695856;28;20292;-73
2024/01/13 11:02:14;;;;;;;1.37;1.20;;;;;;;;;;20673163;28;20211;-73
2024/01/13 11:12:19;;;;;;;0.97;0.97;;;;;;;;;;20900962;22;20229;-72
2024/01/13 11:22:34;;;;;;;1.40;1.23;;;;;;;;;;20907268;28;20274;-72
2024/01/13 11:32:38;;;;;;;1.73;1.10;;;;;;;;;;20921369;28;20251;-73
2024/01/13 11:42:39;;;;;;;1.43;1.20;;;;;;;;;;20942889;28;20213;-75
2024/01/13 11:52:41;;;;;;;1.80;1.03;;;;;;;;;;20887528;28;20213;-74
2024/01/13 12:02:43;;;;;;;1.17;0.73;;;;;;;;;;20929500;28;20209;-73
2024/01/13 12:12:44;;;;;;;1.00;0.90;;;;;;;;;;20941373;28;20267;-75
2024/01/13 12:22:46;;;;;;;1.73;1.07;;;;;;;;;;20962172;28;20669;-74
2024/01/13 12:32:48;;;;;;;1.90;1.27;;;;;;;;;;20939722;28;20758;-75
2024/01/13 12:42:50;;;;;;;1.30;0.80;;;;;;;;;;20966394;28;20229;-73
2024/01/13 12:52:57;;;;;;;1.63;1.27;;;;;;;;;;20964435;28;20217;-73
2024/01/13 13:02:59;;;;;;;2.07;1.47;;;;;;;;;;20910912;28;20214;-76
2024/01/13 13:13:04;;;;;;;1.73;1.00;;;;;;;;;;20924238;28;20267;-75
2024/01/13 13:23:07;;;;;;;1.63;1.23;;;;;;;;;;20917842;28;20750;-74
2024/01/13 13:33:09;;;;;;;1.27;0.90;;;-0.40;99.90;;;;;;20971120;28;20221;-76
2024/01/13 13:43:11;;;;;;;2.00;1.40;;;;;;;;;;20964999;28;20213;-74
2024/01/13 13:53:14;;;;;;;1.03;0.90;;;;;;;;;;20958927;28;20291;-76
2024/01/13 14:03:15;;;;;;;1.50;1.10;;;;;;;;;;20946642;28;20218;-76
2024/01/13 14:13:17;;;;;;;2.80;1.70;;;;;;;;;;20948937;28;20552;-75
2024/01/13 14:23:19;;;;;;;2.03;1.40;;;;;;;;;;20950020;28;20239;-75
2024/01/13 14:33:21;;;;;;;2.57;1.70;;;;;;;;;;20962222;28;20229;-73
2024/01/13 14:43:23;;;;;;;2.13;1.53;;;;;;;;;;20946021;28;20240;-76
2024/01/13 14:53:25;;;;;;;2.23;1.60;;;;;;;;;;20951689;28;20214;-75
2024/01/13 15:03:27;;;;;;;1.63;1.53;;;;;;;;;;20925202;28;20218;-74
2024/01/13 15:13:30;;;;;;;2.80;2.10;;;;;;;;;;20934251;28;20224;-74
2024/01/13 15:23:31;;;;;;;2.00;1.50;;;;;;;;;;20942281;28;20275;-74
2024/01/13 15:33:33;;;;;;;3.27;1.73;;;;;;;;;;20939781;28;20213;-74
2024/01/13 15:43:35;;;;;;;2.47;1.77;;;;;;;;;;20952055;28;20271;-73
2024/01/13 15:53:37;;;;;;;1.70;1.60;;;;;;;;;;20964186;28;20233;-74
2024/01/13 16:03:39;;;;;;;2.70;1.93;;;;;;;;;;20949865;28;20213;-74
2024/01/13 16:13:56;;;;;;;2.97;2.20;;;-0.30;99.90;;;;;;20952265;28;20217;-75
2024/01/13 16:23:59;;;;;;;2.90;1.73;;;;;;;;;;20966093;28;20209;-74
2024/01/13 16:34:00;;;;;;;3.43;2.30;;;;;;;;;;20952818;28;20218;-73
2024/01/13 16:44:03;;;;;;;3.43;2.20;;;;;;;;;;20945913;28;20230;-75
2024/01/13 16:54:05;;;;;;;3.27;2.23;;;;;;;;;;20966978;28;20221;-76
2024/01/13 17:04:07;;;;;;;3.53;2.23;;;;;;;;;;20962835;28;20274;-74
2024/01/13 17:14:09;;;;;;;4.10;2.73;;;;;;;;;;20940141;28;20869;-74
2024/01/13 17:24:10;;;;;;;4.27;3.37;;;;;;;;;;20967607;28;20214;-75
2024/01/13 17:34:12;;;;;;;4.63;3.20;;;;;;;;;;20960919;28;20218;-75
2024/01/13 17:44:14;;;;;;;4.23;2.57;;;;;;;;;;20928362;28;20221;-75
2024/01/13 17:54:16;;;;;;;3.20;2.30;;;0.40;99.90;;;;;;20946913;28;20696;-74
2024/01/13 18:04:18;;;;;;;3.53;3.23;;;;;;;;;;20941018;28;20695;-72
2024/01/13 18:14:20;;;;;;;7.47;5.20;;;;;;;;;;20954463;28;20267;-72
2024/01/13 18:24:23;;;;;;;5.13;3.57;;;;;;;;;;20891254;28;20253;-73
2024/01/13 18:34:25;;;;;;;4.00;3.23;;;;;;;;;;20932095;28;20215;-73
2024/01/13 18:44:27;;;;;;;4.43;3.43;;;;;;;;;;20902606;28;20302;-73
2024/01/13 18:54:28;;;;;;;5.93;4.13;;;;;;;;;;20926730;28;20218;-73
2024/01/13 19:04:30;;;;;;;5.73;4.07;;;;;;;;;;20883914;28;20205;-74
2024/01/13 19:14:33;;;;;;;5.60;4.27;;;;;;;;;;20917715;28;20214;-73
2024/01/13 19:24:35;;;;;;;7.53;3.90;;;;;;;;;;20922970;28;20205;-74
2024/01/13 19:34:37;;;;;;;6.50;4.43;;;;;;;;;;20913829;28;20275;-73
2024/01/13 19:44:39;;;;;;;8.70;4.20;;;;;;;;;;20940058;28;20268;-74
2024/01/13 19:54:44;;;;;;;6.00;3.30;;;-0.30;99.90;;;;;;20941284;28;20210;-74
2024/01/13 20:04:46;;;;;;;4.40;3.10;;;;;;;;;;20941042;28;20244;-75
2024/01/13 20:14:48;;;;;;;4.07;2.93;;;;;;;;;;20951789;28;20221;-74
2024/01/13 20:24:50;;;;;;;5.60;3.60;;;;;;;;;;20954046;28;20258;-74
2024/01/13 20:34:51;;;;;;;4.67;3.23;;;;;;;;;;20944188;28;20739;-74
2024/01/13 20:44:54;;;;;;;5.33;3.50;;;;;;;;;;20946673;28;20261;-74
2024/01/13 20:54:56;;;;;;;4.47;3.33;;;;;;;;;;20934185;28;21319;-74
2024/01/13 21:04:57;;;;;;;4.00;3.07;;;;;;;;;;20925480;28;20221;-75
2024/01/13 21:14:59;;;;;;;3.10;2.50;;;;;;;;;;20938377;28;20230;-75
2024/01/13 21:25:01;;;;;;;5.63;3.57;;;;;;;;;;20945024;28;20213;-74
2024/01/13 21:35:06;;;;;;;6.57;4.17;;;;;;;;;;20961705;28;20290;-74
2024/01/13 21:45:11;;;;;;;5.13;3.73;;;;;;;;;;20944235;28;20290;-74
2024/01/13 21:55:12;;;;;;;3.13;2.20;;;;;;;;;;20937170;28;20214;-74
2024/01/13 22:05:14;;;;;;;3.70;3.20;;;;;;;;;;20948652;28;20646;-73
2024/01/13 22:15:16;;;;;;;4.63;2.53;;;;;;;;;;20962112;28;20218;-73
2024/01/13 22:25:18;;;;;;;3.63;2.90;;;;;;;;;;20954546;28;20274;-74
2024/01/13 22:35:20;;;;;;;5.40;3.03;;;;;;;;;;20958091;28;20271;-73
2024/01/13 22:45:22;;;;;;;4.27;2.93;;;;;;;;;;20952459;28;20209;-73
2024/01/13 22:55:24;;;;;;;3.87;2.57;;;;;;;;;;20949403;28;20252;-73
2024/01/13 23:05:25;;;;;;;2.90;2.20;;;-1.70;99.90;;;;;;20954358;28;20254;-74
2024/01/13 23:15:27;;;;;;;4.20;2.53;;;;;;;;;;20955790;28;20247;-74
2024/01/13 23:25:29;;;;;;;4.67;1.97;;;;;;;;;;20949222;28;20213;-73
2024/01/13 23:35:31;;;;;;;3.23;2.40;;;;;;;;;;20946937;28;20212;-74
2024/01/13 23:45:32;;;;;;;2.73;2.30;;;;;;;;;;20953399;28;20267;-74
2024/01/13 23:55:34;;;;;;;3.20;2.10;;;;;;;;;;20968347;28;20252;-74
